sensor_id;sensor_type;location;lat;lon;timestamp;P1;durP1;ratioP1;P2;durP2;ratioP2
78848;SDS011;68197;41.864;21.942;2024-02-14T00:00:21;6.43;;;5.88;;
78848;SDS011;68197;41.864;21.942;2024-02-14T00:02:49;7.35;;;6.65;;
78848;SDS011;68197;41.864;21.942;2024-02-14T00:05:16;6.38;;;5.03;;
78848;SDS011;68197;41.864;21.942;2024-02-14T00:07:43;5.88;;;5.38;;
78848;SDS011;68197;41.864;21.942;2024-02-14T00:10:09;5.70;;;5.28;;
78848;SDS011;68197;41.864;21.942;2024-02-14T00:12:36;5.13;;;4.55;;
78848;SDS011;68197;41.864;21.942;2024-02-14T00:15:02;6.40;;;5.90;;
78848;SDS011;68197;41.864;21.942;2024-02-14T00:17:29;6.53;;;6.03;;
78848;SDS011;68197;41.864;21.942;2024-02-14T00:19:55;5.88;;;5.38;;
78848;SDS011;68197;41.864;21.942;2024-02-14T00:22:21;6.45;;;5.07;;
78848;SDS011;68197;41.864;21.942;2024-02-14T00:24:48;7.30;;;6.10;;
78848;SDS011;68197;41.864;21.942;2024-02-14T00:27:15;6.15;;;5.20;;
78848;SDS011;68197;41.864;21.942;2024-02-14T00:29:42;6.43;;;5.82;;
78848;SDS011;68197;41.864;21.942;2024-02-14T00:32:10;5.82;;;5.22;;
78848;SDS011;68197;41.864;21.942;2024-02-14T00:34:36;6.72;;;5.47;;
78848;SDS011;68197;41.864;21.942;2024-02-14T00:37:02;6.20;;;5.60;;
78848;SDS011;68197;41.864;21.942;2024-02-14T00:39:29;6.75;;;6.18;;
78848;SDS011;68197;41.864;21.942;2024-02-14T00:41:55;5.50;;;4.60;;
78848;SDS011;68197;41.864;21.942;2024-02-14T00:44:21;5.28;;;4.43;;
78848;SDS011;68197;41.864;21.942;2024-02-14T00:46:47;6.88;;;5.70;;
78848;SDS011;68197;41.864;21.942;2024-02-14T00:49:14;6.75;;;5.35;;
78848;SDS011;68197;41.864;21.942;2024-02-14T00:51:40;6.88;;;5.55;;
78848;SDS011;68197;41.864;21.942;2024-02-14T00:54:06;7.03;;;6.43;;
78848;SDS011;68197;41.864;21.942;2024-02-14T00:56:33;6.80;;;6.15;;
78848;SDS011;68197;41.864;21.942;2024-02-14T00:58:59;7.28;;;6.68;;
78848;SDS011;68197;41.864;21.942;2024-02-14T01:01:26;6.25;;;5.65;;
78848;SDS011;68197;41.864;21.942;2024-02-14T01:03:52;7.45;;;6.75;;
78848;SDS011;68197;41.864;21.942;2024-02-14T01:06:18;7.28;;;6.25;;
78848;SDS011;68197;41.864;21.942;2024-02-14T01:08:45;6.40;;;5.80;;
78848;SDS011;68197;41.864;21.942;2024-02-14T01:11:11;7.22;;;6.53;;
78848;SDS011;68197;41.864;21.942;2024-02-14T01:13:37;7.03;;;6.32;;
78848;SDS011;68197;41.864;21.942;2024-02-14T01:16:03;6.25;;;5.65;;
78848;SDS011;68197;41.864;21.942;2024-02-14T01:18:30;7.63;;;7.03;;
78848;SDS011;68197;41.864;21.942;2024-02-14T01:20:56;7.47;;;6.85;;
78848;SDS011;68197;41.864;21.942;2024-02-14T01:23:26;7.35;;;6.72;;
78848;SDS011;68197;41.864;21.942;2024-02-14T01:25:53;7.75;;;7.05;;
78848;SDS011;68197;41.864;21.942;2024-02-14T01:28:22;6.70;;;6.00;;
78848;SDS011;68197;41.864;21.942;2024-02-14T01:30:48;7.50;;;6.80;;
78848;SDS011;68197;41.864;21.942;2024-02-14T01:33:16;6.95;;;6.25;;
78848;SDS011;68197;41.864;21.942;2024-02-14T01:35:42;7.50;;;6.80;;
78848;SDS011;68197;41.864;21.942;2024-02-14T01:38:08;7.55;;;6.85;;
78848;SDS011;68197;41.864;21.942;2024-02-14T01:40:35;7.25;;;6.55;;
78848;SDS011;68197;41.864;21.942;2024-02-14T01:43:01;9.27;;;8.38;;
78848;SDS011;68197;41.864;21.942;2024-02-14T01:45:27;8.07;;;7.28;;
78848;SDS011;68197;41.864;21.942;2024-02-14T01:47:53;8.85;;;8.02;;
78848;SDS011;68197;41.864;21.942;2024-02-14T01:50:20;9.23;;;8.43;;
78848;SDS011;68197;41.864;21.942;2024-02-14T01:52:54;9.05;;;8.15;;
78848;SDS011;68197;41.864;21.942;2024-02-14T01:55:22;8.70;;;7.90;;
78848;SDS011;68197;41.864;21.942;2024-02-14T01:57:48;6.85;;;6.15;;
78848;SDS011;68197;41.864;21.942;2024-02-14T02:00:14;9.35;;;8.48;;
78848;SDS011;68197;41.864;21.942;2024-02-14T02:02:43;9.65;;;8.85;;
78848;SDS011;68197;41.864;21.942;2024-02-14T02:05:09;8.63;;;7.80;;
78848;SDS011;68197;41.864;21.942;2024-02-14T02:07:35;9.25;;;8.38;;
78848;SDS011;68197;41.864;21.942;2024-02-14T02:10:05;8.32;;;7.53;;
78848;SDS011;68197;41.864;21.942;2024-02-14T02:12:31;10.02;;;9.02;;
78848;SDS011;68197;41.864;21.942;2024-02-14T02:14:58;8.73;;;7.93;;
78848;SDS011;68197;41.864;21.942;2024-02-14T02:17:24;10.27;;;9.27;;
78848;SDS011;68197;41.864;21.942;2024-02-14T02:19:53;9.55;;;8.55;;
78848;SDS011;68197;41.864;21.942;2024-02-14T02:22:20;10.02;;;9.15;;
78848;SDS011;68197;41.864;21.942;2024-02-14T02:24:46;9.93;;;9.00;;
78848;SDS011;68197;41.864;21.942;2024-02-14T02:27:12;9.57;;;8.77;;
78848;SDS011;68197;41.864;21.942;2024-02-14T02:29:41;11.80;;;9.02;;
78848;SDS011;68197;41.864;21.942;2024-02-14T02:32:07;9.35;;;8.45;;
78848;SDS011;68197;41.864;21.942;2024-02-14T02:34:35;10.20;;;9.30;;
78848;SDS011;68197;41.864;21.942;2024-02-14T02:37:05;8.10;;;7.30;;
78848;SDS011;68197;41.864;21.942;2024-02-14T02:41:59;8.57;;;7.65;;
78848;SDS011;68197;41.864;21.942;2024-02-14T02:44:25;9.85;;;8.13;;
78848;SDS011;68197;41.864;21.942;2024-02-14T02:46:51;9.13;;;8.15;;
78848;SDS011;68197;41.864;21.942;2024-02-14T02:49:17;9.90;;;8.90;;
78848;SDS011;68197;41.864;21.942;2024-02-14T02:51:43;8.90;;;7.53;;
78848;SDS011;68197;41.864;21.942;2024-02-14T02:54:09;9.18;;;8.35;;
78848;SDS011;68197;41.864;21.942;2024-02-14T02:56:36;10.38;;;9.32;;
78848;SDS011;68197;41.864;21.942;2024-02-14T02:59:02;8.98;;;7.60;;
78848;SDS011;68197;41.864;21.942;2024-02-14T03:01:34;8.55;;;7.65;;
78848;SDS011;68197;41.864;21.942;2024-02-14T03:04:01;8.77;;;7.97;;
78848;SDS011;68197;41.864;21.942;2024-02-14T03:06:27;8.85;;;7.95;;
78848;SDS011;68197;41.864;21.942;2024-02-14T03:08:53;8.75;;;7.95;;
78848;SDS011;68197;41.864;21.942;2024-02-14T03:11:21;9.52;;;8.63;;
78848;SDS011;68197;41.864;21.942;2024-02-14T03:13:47;8.90;;;8.10;;
78848;SDS011;68197;41.864;21.942;2024-02-14T03:16:16;9.07;;;8.18;;
78848;SDS011;68197;41.864;21.942;2024-02-14T03:18:43;10.25;;;9.20;;
78848;SDS011;68197;41.864;21.942;2024-02-14T03:21:09;8.90;;;8.07;;
78848;SDS011;68197;41.864;21.942;2024-02-14T03:23:37;8.18;;;7.35;;
78848;SDS011;68197;41.864;21.942;2024-02-14T03:26:04;9.55;;;8.52;;
78848;SDS011;68197;41.864;21.942;2024-02-14T03:28:33;8.90;;;8.00;;
78848;SDS011;68197;41.864;21.942;2024-02-14T03:30:59;9.30;;;8.05;;
78848;SDS011;68197;41.864;21.942;2024-02-14T03:33:25;8.82;;;7.78;;
78848;SDS011;68197;41.864;21.942;2024-02-14T03:35:51;8.25;;;7.43;;
78848;SDS011;68197;41.864;21.942;2024-02-14T03:38:27;9.35;;;8.45;;
78848;SDS011;68197;41.864;21.942;2024-02-14T03:40:53;11.75;;;9.13;;
78848;SDS011;68197;41.864;21.942;2024-02-14T03:43:19;9.45;;;8.45;;
78848;SDS011;68197;41.864;21.942;2024-02-14T03:45:48;8.77;;;7.97;;
78848;SDS011;68197;41.864;21.942;2024-02-14T03:48:14;7.80;;;7.00;;
78848;SDS011;68197;41.864;21.942;2024-02-14T03:50:40;8.27;;;7.38;;
78848;SDS011;68197;41.864;21.942;2024-02-14T03:53:08;9.10;;;8.27;;
78848;SDS011;68197;41.864;21.942;2024-02-14T03:55:36;7.45;;;6.70;;
78848;SDS011;68197;41.864;21.942;2024-02-14T03:58:02;8.80;;;7.90;;
78848;SDS011;68197;41.864;21.942;2024-02-14T04:00:30;9.48;;;8.43;;
78848;SDS011;68197;41.864;21.942;2024-02-14T04:02:56;10.40;;;9.27;;
78848;SDS011;68197;41.864;21.942;2024-02-14T04:05:25;8.80;;;7.90;;
78848;SDS011;68197;41.864;21.942;2024-02-14T04:07:54;8.52;;;7.72;;
78848;SDS011;68197;41.864;21.942;2024-02-14T04:10:21;10.02;;;9.05;;
78848;SDS011;68197;41.864;21.942;2024-02-14T04:12:47;9.48;;;8.48;;
78848;SDS011;68197;41.864;21.942;2024-02-14T04:15:13;9.05;;;7.93;;
78848;SDS011;68197;41.864;21.942;2024-02-14T04:17:40;9.73;;;8.05;;
78848;SDS011;68197;41.864;21.942;2024-02-14T04:20:06;10.15;;;9.18;;
78848;SDS011;68197;41.864;21.942;2024-02-14T04:22:32;13.43;;;8.40;;
78848;SDS011;68197;41.864;21.942;2024-02-14T04:24:58;8.57;;;7.70;;
78848;SDS011;68197;41.864;21.942;2024-02-14T04:27:24;8.50;;;7.65;;
78848;SDS011;68197;41.864;21.942;2024-02-14T04:29:50;8.65;;;7.75;;
78848;SDS011;68197;41.864;21.942;2024-02-14T04:32:17;10.57;;;8.48;;
78848;SDS011;68197;41.864;21.942;2024-02-14T04:34:44;9.18;;;8.20;;
78848;SDS011;68197;41.864;21.942;2024-02-14T04:37:10;9.48;;;8.48;;
78848;SDS011;68197;41.864;21.942;2024-02-14T04:39:41;9.88;;;8.88;;
78848;SDS011;68197;41.864;21.942;2024-02-14T04:42:07;9.32;;;8.43;;
78848;SDS011;68197;41.864;21.942;2024-02-14T04:44:34;10.10;;;9.10;;
78848;SDS011;68197;41.864;21.942;2024-02-14T04:47:00;10.45;;;9.45;;
78848;SDS011;68197;41.864;21.942;2024-02-14T04:49:26;11.05;;;9.13;;
78848;SDS011;68197;41.864;21.942;2024-02-14T04:51:56;10.18;;;9.10;;
78848;SDS011;68197;41.864;21.942;2024-02-14T04:54:22;9.75;;;8.50;;
78848;SDS011;68197;41.864;21.942;2024-02-14T04:56:48;11.85;;;8.85;;
78848;SDS011;68197;41.864;21.942;2024-02-14T04:59:14;9.60;;;8.60;;
78848;SDS011;68197;41.864;21.942;2024-02-14T05:01:40;10.75;;;9.75;;
78848;SDS011;68197;41.864;21.942;2024-02-14T05:04:06;9.82;;;8.85;;
78848;SDS011;68197;41.864;21.942;2024-02-14T05:06:33;10.07;;;8.95;;
78848;SDS011;68197;41.864;21.942;2024-02-14T05:08:59;10.40;;;9.00;;
78848;SDS011;68197;41.864;21.942;2024-02-14T05:11:25;9.90;;;8.48;;
78848;SDS011;68197;41.864;21.942;2024-02-14T05:13:51;9.88;;;8.63;;
78848;SDS011;68197;41.864;21.942;2024-02-14T05:16:18;9.88;;;8.27;;
78848;SDS011;68197;41.864;21.942;2024-02-14T05:18:44;9.65;;;8.63;;
78848;SDS011;68197;41.864;21.942;2024-02-14T05:21:10;9.20;;;7.75;;
78848;SDS011;68197;41.864;21.942;2024-02-14T05:23:36;10.32;;;8.25;;
78848;SDS011;68197;41.864;21.942;2024-02-14T05:26:03;11.32;;;9.15;;
78848;SDS011;68197;41.864;21.942;2024-02-14T05:28:29;10.70;;;8.88;;
78848;SDS011;68197;41.864;21.942;2024-02-14T05:30:56;10.55;;;8.05;;
78848;SDS011;68197;41.864;21.942;2024-02-14T05:33:22;9.88;;;8.70;;
78848;SDS011;68197;41.864;21.942;2024-02-14T05:35:49;11.15;;;9.95;;
78848;SDS011;68197;41.864;21.942;2024-02-14T05:38:15;9.93;;;8.32;;
78848;SDS011;68197;41.864;21.942;2024-02-14T05:40:44;9.30;;;8.40;;
78848;SDS011;68197;41.864;21.942;2024-02-14T05:43:10;9.93;;;8.82;;
78848;SDS011;68197;41.864;21.942;2024-02-14T05:45:37;10.27;;;8.35;;
78848;SDS011;68197;41.864;21.942;2024-02-14T05:48:03;10.38;;;8.82;;
78848;SDS011;68197;41.864;21.942;2024-02-14T05:50:29;9.32;;;8.43;;
78848;SDS011;68197;41.864;21.942;2024-02-14T05:52:55;12.30;;;10.38;;
78848;SDS011;68197;41.864;21.942;2024-02-14T05:55:24;13.05;;;11.75;;
78848;SDS011;68197;41.864;21.942;2024-02-14T05:57:51;10.57;;;8.70;;
78848;SDS011;68197;41.864;21.942;2024-02-14T06:00:17;12.43;;;9.82;;
78848;SDS011;68197;41.864;21.942;2024-02-14T06:02:44;12.55;;;9.57;;
78848;SDS011;68197;41.864;21.942;2024-02-14T06:05:10;9.57;;;8.57;;
78848;SDS011;68197;41.864;21.942;2024-02-14T06:07:36;11.43;;;10.23;;
78848;SDS011;68197;41.864;21.942;2024-02-14T06:10:03;10.68;;;9.02;;
78848;SDS011;68197;41.864;21.942;2024-02-14T06:12:31;10.40;;;8.88;;
78848;SDS011;68197;41.864;21.942;2024-02-14T06:14:57;10.05;;;8.80;;
78848;SDS011;68197;41.864;21.942;2024-02-14T06:17:23;9.73;;;8.70;;
78848;SDS011;68197;41.864;21.942;2024-02-14T06:19:51;11.57;;;10.07;;
78848;SDS011;68197;41.864;21.942;2024-02-14T06:22:18;11.07;;;9.00;;
78848;SDS011;68197;41.864;21.942;2024-02-14T06:24:45;11.55;;;9.15;;
78848;SDS011;68197;41.864;21.942;2024-02-14T06:29:42;10.65;;;9.25;;
78848;SDS011;68197;41.864;21.942;2024-02-14T06:32:09;11.20;;;10.00;;
78848;SDS011;68197;41.864;21.942;2024-02-14T06:34:35;11.20;;;9.77;;
78848;SDS011;68197;41.864;21.942;2024-02-14T06:37:01;10.77;;;9.68;;
78848;SDS011;68197;41.864;21.942;2024-02-14T06:39:27;10.23;;;8.95;;
78848;SDS011;68197;41.864;21.942;2024-02-14T06:41:53;12.77;;;7.80;;
78848;SDS011;68197;41.864;21.942;2024-02-14T06:44:19;11.00;;;9.20;;
78848;SDS011;68197;41.864;21.942;2024-02-14T06:46:45;13.10;;;9.52;;
78848;SDS011;68197;41.864;21.942;2024-02-14T06:49:12;13.35;;;9.82;;
78848;SDS011;68197;41.864;21.942;2024-02-14T06:51:38;11.57;;;7.80;;
78848;SDS011;68197;41.864;21.942;2024-02-14T06:54:04;11.13;;;10.02;;
78848;SDS011;68197;41.864;21.942;2024-02-14T06:56:30;10.50;;;8.70;;
78848;SDS011;68197;41.864;21.942;2024-02-14T06:58:57;10.70;;;8.95;;
78848;SDS011;68197;41.864;21.942;2024-02-14T07:01:28;10.38;;;9.27;;
78848;SDS011;68197;41.864;21.942;2024-02-14T07:03:54;11.57;;;10.48;;
78848;SDS011;68197;41.864;21.942;2024-02-14T07:06:20;10.77;;;9.10;;
78848;SDS011;68197;41.864;21.942;2024-02-14T07:08:47;12.70;;;8.35;;
78848;SDS011;68197;41.864;21.942;2024-02-14T07:11:14;11.13;;;9.57;;
78848;SDS011;68197;41.864;21.942;2024-02-14T07:13:43;10.65;;;8.77;;
78848;SDS011;68197;41.864;21.942;2024-02-14T07:16:09;10.90;;;9.80;;
78848;SDS011;68197;41.864;21.942;2024-02-14T07:18:35;10.02;;;8.70;;
78848;SDS011;68197;41.864;21.942;2024-02-14T07:21:01;12.00;;;9.27;;
78848;SDS011;68197;41.864;21.942;2024-02-14T07:23:31;10.48;;;8.88;;
78848;SDS011;68197;41.864;21.942;2024-02-14T07:26:00;12.57;;;10.35;;
78848;SDS011;68197;41.864;21.942;2024-02-14T07:28:29;13.07;;;10.00;;
78848;SDS011;68197;41.864;21.942;2024-02-14T07:30:55;12.00;;;9.88;;
78848;SDS011;68197;41.864;21.942;2024-02-14T07:33:21;10.82;;;8.60;;
78848;SDS011;68197;41.864;21.942;2024-02-14T07:35:48;11.00;;;7.95;;
78848;SDS011;68197;41.864;21.942;2024-02-14T07:38:15;10.57;;;9.00;;
78848;SDS011;68197;41.864;21.942;2024-02-14T07:40:41;10.30;;;9.30;;
78848;SDS011;68197;41.864;21.942;2024-02-14T07:43:07;10.45;;;9.32;;
78848;SDS011;68197;41.864;21.942;2024-02-14T07:45:34;20.27;;;8.93;;
78848;SDS011;68197;41.864;21.942;2024-02-14T07:48:00;10.20;;;8.50;;
78848;SDS011;68197;41.864;21.942;2024-02-14T07:50:28;11.00;;;8.85;;
78848;SDS011;68197;41.864;21.942;2024-02-14T07:52:54;13.77;;;10.07;;
78848;SDS011;68197;41.864;21.942;2024-02-14T07:55:20;10.60;;;7.82;;
78848;SDS011;68197;41.864;21.942;2024-02-14T07:57:47;16.15;;;11.43;;
78848;SDS011;68197;41.864;21.942;2024-02-14T08:00:13;12.43;;;9.45;;
78848;SDS011;68197;41.864;21.942;2024-02-14T08:02:44;11.77;;;7.95;;
78848;SDS011;68197;41.864;21.942;2024-02-14T08:05:10;12.45;;;8.93;;
78848;SDS011;68197;41.864;21.942;2024-02-14T08:07:36;11.98;;;7.90;;
78848;SDS011;68197;41.864;21.942;2024-02-14T08:10:02;11.55;;;9.05;;
78848;SDS011;68197;41.864;21.942;2024-02-14T08:12:30;9.70;;;8.73;;
78848;SDS011;68197;41.864;21.942;2024-02-14T08:14:56;15.20;;;8.10;;
78848;SDS011;68197;41.864;21.942;2024-02-14T08:17:22;8.73;;;7.78;;
78848;SDS011;68197;41.864;21.942;2024-02-14T08:19:48;8.05;;;7.25;;
78848;SDS011;68197;41.864;21.942;2024-02-14T08:22:14;10.65;;;8.05;;
78848;SDS011;68197;41.864;21.942;2024-02-14T08:24:41;11.38;;;9.27;;
78848;SDS011;68197;41.864;21.942;2024-02-14T08:27:07;17.92;;;11.05;;
78848;SDS011;68197;41.864;21.942;2024-02-14T08:29:33;10.45;;;9.40;;
78848;SDS011;68197;41.864;21.942;2024-02-14T08:31:59;14.63;;;11.98;;
78848;SDS011;68197;41.864;21.942;2024-02-14T08:34:25;10.13;;;8.18;;
78848;SDS011;68197;41.864;21.942;2024-02-14T08:36:52;9.38;;;8.38;;
78848;SDS011;68197;41.864;21.942;2024-02-14T08:39:18;9.65;;;8.75;;
78848;SDS011;68197;41.864;21.942;2024-02-14T08:41:45;24.77;;;8.45;;
78848;SDS011;68197;41.864;21.942;2024-02-14T08:44:12;10.85;;;9.43;;
78848;SDS011;68197;41.864;21.942;2024-02-14T08:46:38;9.98;;;8.80;;
78848;SDS011;68197;41.864;21.942;2024-02-14T08:49:07;8.57;;;7.30;;
78848;SDS011;68197;41.864;21.942;2024-02-14T08:51:37;19.88;;;13.35;;
78848;SDS011;68197;41.864;21.942;2024-02-14T08:54:06;10.23;;;9.07;;
78848;SDS011;68197;41.864;21.942;2024-02-14T08:56:32;10.05;;;8.57;;
78848;SDS011;68197;41.864;21.942;2024-02-14T08:58:59;12.57;;;7.50;;
78848;SDS011;68197;41.864;21.942;2024-02-14T09:01:28;14.02;;;9.65;;
78848;SDS011;68197;41.864;21.942;2024-02-14T09:03:54;10.10;;;8.30;;
78848;SDS011;68197;41.864;21.942;2024-02-14T09:06:20;7.75;;;6.07;;
78848;SDS011;68197;41.864;21.942;2024-02-14T09:08:46;9.25;;;7.28;;
78848;SDS011;68197;41.864;21.942;2024-02-14T09:11:13;10.18;;;9.13;;
78848;SDS011;68197;41.864;21.942;2024-02-14T09:13:39;9.25;;;7.70;;
78848;SDS011;68197;41.864;21.942;2024-02-14T09:16:06;10.68;;;7.68;;
78848;SDS011;68197;41.864;21.942;2024-02-14T09:18:32;9.40;;;8.50;;
78848;SDS011;68197;41.864;21.942;2024-02-14T09:20:58;9.40;;;6.43;;
78848;SDS011;68197;41.864;21.942;2024-02-14T09:23:26;9.10;;;8.18;;
78848;SDS011;68197;41.864;21.942;2024-02-14T09:25:52;9.45;;;8.55;;
78848;SDS011;68197;41.864;21.942;2024-02-14T09:28:19;8.65;;;7.68;;
78848;SDS011;68197;41.864;21.942;2024-02-14T09:30:45;9.55;;;8.55;;
78848;SDS011;68197;41.864;21.942;2024-02-14T09:33:12;14.00;;;10.68;;
78848;SDS011;68197;41.864;21.942;2024-02-14T09:35:38;8.70;;;5.68;;
78848;SDS011;68197;41.864;21.942;2024-02-14T09:38:12;10.88;;;9.63;;
78848;SDS011;68197;41.864;21.942;2024-02-14T09:40:40;12.85;;;8.93;;
78848;SDS011;68197;41.864;21.942;2024-02-14T09:43:09;10.68;;;8.82;;
78848;SDS011;68197;41.864;21.942;2024-02-14T09:45:38;11.63;;;8.75;;
78848;SDS011;68197;41.864;21.942;2024-02-14T09:48:05;24.70;;;7.40;;
78848;SDS011;68197;41.864;21.942;2024-02-14T09:50:33;13.90;;;8.48;;
78848;SDS011;68197;41.864;21.942;2024-02-14T09:52:59;12.02;;;9.23;;
78848;SDS011;68197;41.864;21.942;2024-02-14T09:55:26;9.93;;;8.85;;
78848;SDS011;68197;41.864;21.942;2024-02-14T09:57:53;12.68;;;9.27;;
78848;SDS011;68197;41.864;21.942;2024-02-14T10:00:20;19.08;;;11.13;;
78848;SDS011;68197;41.864;21.942;2024-02-14T10:02:46;16.23;;;10.77;;
78848;SDS011;68197;41.864;21.942;2024-02-14T10:05:13;18.63;;;10.00;;
78848;SDS011;68197;41.864;21.942;2024-02-14T10:07:42;10.10;;;8.27;;
78848;SDS011;68197;41.864;21.942;2024-02-14T10:10:09;11.38;;;10.18;;
78848;SDS011;68197;41.864;21.942;2024-02-14T10:12:36;10.70;;;9.25;;
78848;SDS011;68197;41.864;21.942;2024-02-14T10:15:03;10.35;;;9.20;;
78848;SDS011;68197;41.864;21.942;2024-02-14T10:17:29;11.32;;;9.93;;
78848;SDS011;68197;41.864;21.942;2024-02-14T10:19:56;10.98;;;9.05;;
78848;SDS011;68197;41.864;21.942;2024-02-14T10:22:23;11.20;;;9.32;;
78848;SDS011;68197;41.864;21.942;2024-02-14T10:24:50;11.90;;;10.27;;
78848;SDS011;68197;41.864;21.942;2024-02-14T10:27:17;16.15;;;12.05;;
78848;SDS011;68197;41.864;21.942;2024-02-14T10:29:43;7.70;;;6.78;;
78848;SDS011;68197;41.864;21.942;2024-02-14T10:32:14;12.30;;;9.63;;
78848;SDS011;68197;41.864;21.942;2024-02-14T10:34:40;12.18;;;8.93;;
78848;SDS011;68197;41.864;21.942;2024-02-14T10:37:08;11.02;;;7.47;;
78848;SDS011;68197;41.864;21.942;2024-02-14T10:39:35;11.38;;;7.90;;
78848;SDS011;68197;41.864;21.942;2024-02-14T10:42:01;8.57;;;7.25;;
78848;SDS011;68197;41.864;21.942;2024-02-14T10:44:28;9.75;;;7.78;;
78848;SDS011;68197;41.864;21.942;2024-02-14T10:46:55;11.57;;;8.18;;
78848;SDS011;68197;41.864;21.942;2024-02-14T10:49:22;11.00;;;8.73;;
78848;SDS011;68197;41.864;21.942;2024-02-14T10:51:50;10.73;;;8.35;;
78848;SDS011;68197;41.864;21.942;2024-02-14T10:54:18;12.02;;;10.68;;
78848;SDS011;68197;41.864;21.942;2024-02-14T10:56:48;10.90;;;8.07;;
78848;SDS011;68197;41.864;21.942;2024-02-14T10:59:18;12.82;;;8.65;;
78848;SDS011;68197;41.864;21.942;2024-02-14T11:01:45;10.95;;;7.65;;
78848;SDS011;68197;41.864;21.942;2024-02-14T11:04:12;8.68;;;6.82;;
78848;SDS011;68197;41.864;21.942;2024-02-14T11:06:48;9.85;;;8.30;;
78848;SDS011;68197;41.864;21.942;2024-02-14T11:09:14;7.65;;;6.80;;
78848;SDS011;68197;41.864;21.942;2024-02-14T11:11:44;9.30;;;6.40;;
78848;SDS011;68197;41.864;21.942;2024-02-14T11:14:14;9.77;;;6.90;;
78848;SDS011;68197;41.864;21.942;2024-02-14T11:16:41;9.55;;;7.22;;
78848;SDS011;68197;41.864;21.942;2024-02-14T11:19:11;10.52;;;7.47;;
78848;SDS011;68197;41.864;21.942;2024-02-14T11:21:43;8.80;;;7.65;;
78848;SDS011;68197;41.864;21.942;2024-02-14T11:24:10;7.80;;;6.70;;
78848;SDS011;68197;41.864;21.942;2024-02-14T11:26:52;9.75;;;8.57;;
78848;SDS011;68197;41.864;21.942;2024-02-14T11:29:19;8.73;;;6.50;;
78848;SDS011;68197;41.864;21.942;2024-02-14T11:31:45;11.55;;;6.05;;
78848;SDS011;68197;41.864;21.942;2024-02-14T11:34:13;12.95;;;8.30;;
78848;SDS011;68197;41.864;21.942;2024-02-14T11:36:43;18.27;;;7.30;;
78848;SDS011;68197;41.864;21.942;2024-02-14T11:39:10;11.55;;;8.25;;
78848;SDS011;68197;41.864;21.942;2024-02-14T11:41:37;7.78;;;6.22;;
78848;SDS011;68197;41.864;21.942;2024-02-14T11:44:04;10.95;;;8.38;;
78848;SDS011;68197;41.864;21.942;2024-02-14T11:46:33;14.13;;;7.75;;
78848;SDS011;68197;41.864;21.942;2024-02-14T11:49:01;7.63;;;6.82;;
78848;SDS011;68197;41.864;21.942;2024-02-14T11:51:28;7.88;;;6.57;;
78848;SDS011;68197;41.864;21.942;2024-02-14T11:53:55;10.00;;;6.35;;
78848;SDS011;68197;41.864;21.942;2024-02-14T11:56:22;8.68;;;5.90;;
78848;SDS011;68197;41.864;21.942;2024-02-14T11:58:50;9.98;;;6.40;;
78848;SDS011;68197;41.864;21.942;2024-02-14T12:01:17;9.48;;;7.22;;
78848;SDS011;68197;41.864;21.942;2024-02-14T12:03:44;11.32;;;5.53;;
78848;SDS011;68197;41.864;21.942;2024-02-14T12:06:10;8.38;;;6.60;;
78848;SDS011;68197;41.864;21.942;2024-02-14T12:08:37;11.10;;;6.68;;
78848;SDS011;68197;41.864;21.942;2024-02-14T12:11:03;10.00;;;7.85;;
78848;SDS011;68197;41.864;21.942;2024-02-14T12:13:30;9.68;;;5.63;;
78848;SDS011;68197;41.864;21.942;2024-02-14T12:16:02;8.70;;;6.80;;
78848;SDS011;68197;41.864;21.942;2024-02-14T12:18:29;6.82;;;5.80;;
78848;SDS011;68197;41.864;21.942;2024-02-14T12:21:13;8.25;;;6.28;;
78848;SDS011;68197;41.864;21.942;2024-02-14T12:23:39;9.77;;;7.32;;
78848;SDS011;68197;41.864;21.942;2024-02-14T12:26:06;11.93;;;7.93;;
78848;SDS011;68197;41.864;21.942;2024-02-14T12:28:32;6.60;;;5.45;;
78848;SDS011;68197;41.864;21.942;2024-02-14T12:30:59;8.30;;;7.28;;
78848;SDS011;68197;41.864;21.942;2024-02-14T12:33:25;7.60;;;4.85;;
78848;SDS011;68197;41.864;21.942;2024-02-14T12:35:55;7.47;;;6.13;;
78848;SDS011;68197;41.864;21.942;2024-02-14T12:38:22;8.02;;;6.78;;
78848;SDS011;68197;41.864;21.942;2024-02-14T12:40:49;6.45;;;5.35;;
78848;SDS011;68197;41.864;21.942;2024-02-14T12:43:15;8.63;;;7.70;;
78848;SDS011;68197;41.864;21.942;2024-02-14T12:45:41;9.45;;;5.82;;
78848;SDS011;68197;41.864;21.942;2024-02-14T12:48:09;7.82;;;6.45;;
78848;SDS011;68197;41.864;21.942;2024-02-14T12:50:38;8.93;;;7.22;;
78848;SDS011;68197;41.864;21.942;2024-02-14T12:53:05;6.80;;;5.45;;
78848;SDS011;68197;41.864;21.942;2024-02-14T12:55:31;7.60;;;6.22;;
78848;SDS011;68197;41.864;21.942;2024-02-14T12:57:58;9.68;;;6.07;;
78848;SDS011;68197;41.864;21.942;2024-02-14T13:00:24;7.07;;;5.68;;
78848;SDS011;68197;41.864;21.942;2024-02-14T13:02:51;10.85;;;8.90;;
78848;SDS011;68197;41.864;21.942;2024-02-14T13:05:18;9.70;;;7.10;;
78848;SDS011;68197;41.864;21.942;2024-02-14T13:07:45;12.35;;;7.00;;
78848;SDS011;68197;41.864;21.942;2024-02-14T13:10:11;11.23;;;7.18;;
78848;SDS011;68197;41.864;21.942;2024-02-14T13:12:38;9.27;;;6.55;;
78848;SDS011;68197;41.864;21.942;2024-02-14T13:15:04;10.43;;;8.85;;
78848;SDS011;68197;41.864;21.942;2024-02-14T13:17:31;9.52;;;7.38;;
78848;SDS011;68197;41.864;21.942;2024-02-14T13:19:57;7.13;;;5.68;;
78848;SDS011;68197;41.864;21.942;2024-02-14T13:22:25;7.68;;;6.30;;
78848;SDS011;68197;41.864;21.942;2024-02-14T13:24:51;8.32;;;6.40;;
78848;SDS011;68197;41.864;21.942;2024-02-14T13:27:17;9.23;;;7.40;;
78848;SDS011;68197;41.864;21.942;2024-02-14T13:29:46;8.07;;;6.82;;
78848;SDS011;68197;41.864;21.942;2024-02-14T13:32:12;11.40;;;8.30;;
78848;SDS011;68197;41.864;21.942;2024-02-14T13:34:38;7.13;;;5.32;;
78848;SDS011;68197;41.864;21.942;2024-02-14T13:37:05;8.15;;;5.97;;
78848;SDS011;68197;41.864;21.942;2024-02-14T13:39:31;8.15;;;6.25;;
78848;SDS011;68197;41.864;21.942;2024-02-14T13:41:57;8.32;;;6.90;;
78848;SDS011;68197;41.864;21.942;2024-02-14T13:44:25;12.43;;;8.20;;
78848;SDS011;68197;41.864;21.942;2024-02-14T13:46:51;12.43;;;7.63;;
78848;SDS011;68197;41.864;21.942;2024-02-14T13:49:18;7.63;;;6.82;;
78848;SDS011;68197;41.864;21.942;2024-02-14T13:51:50;10.20;;;6.70;;
78848;SDS011;68197;41.864;21.942;2024-02-14T13:54:20;13.25;;;6.25;;
78848;SDS011;68197;41.864;21.942;2024-02-14T13:56:47;8.43;;;7.57;;
78848;SDS011;68197;41.864;21.942;2024-02-14T13:59:14;11.02;;;8.23;;
78848;SDS011;68197;41.864;21.942;2024-02-14T14:01:41;12.68;;;7.82;;
78848;SDS011;68197;41.864;21.942;2024-02-14T14:04:07;12.82;;;10.32;;
78848;SDS011;68197;41.864;21.942;2024-02-14T14:06:33;11.15;;;8.18;;
78848;SDS011;68197;41.864;21.942;2024-02-14T14:09:00;11.85;;;9.10;;
78848;SDS011;68197;41.864;21.942;2024-02-14T14:11:28;12.25;;;9.45;;
78848;SDS011;68197;41.864;21.942;2024-02-14T14:13:54;10.48;;;8.98;;
78848;SDS011;68197;41.864;21.942;2024-02-14T14:16:20;10.25;;;8.25;;
78848;SDS011;68197;41.864;21.942;2024-02-14T14:18:48;9.55;;;8.13;;
78848;SDS011;68197;41.864;21.942;2024-02-14T14:21:15;11.23;;;8.50;;
78848;SDS011;68197;41.864;21.942;2024-02-14T14:23:41;8.82;;;6.30;;
78848;SDS011;68197;41.864;21.942;2024-02-14T14:26:07;11.15;;;6.80;;
78848;SDS011;68197;41.864;21.942;2024-02-14T14:28:33;15.07;;;6.13;;
78848;SDS011;68197;41.864;21.942;2024-02-14T14:30:59;11.30;;;9.27;;